Flight Track Log - Related Links

Times and Time Zones

All times are in EDT time to prevent confusion due to time zone crossing. See the N300DC flight status page for this flight to view local times or setup timezone preferences in your user account.

Time Position Orientation Groundspeed Altitude Reporting Facility
EDT Latitude Longitude Course Direction KTS MPH feet Rate Location/Type
Thu 03:11:12 PM 41.7439 -72.5819 141° Southeast 74 85 2,200  Level Boston Center
Thu 03:12:11 PM 41.7231 -72.5597 141° Southeast 99 114 2,700 500 Climbing Boston Center
Thu 03:13:12 PM 41.7064 -72.5375 135° Southeast 88 101 3,200 532 Climbing Boston Center
Thu 03:14:15 PM 41.6875 -72.5150 138° Southeast 90 104 3,800 484 Climbing Boston Center
Thu 03:15:16 PM 41.6708 -72.4872 129° Southeast 95 109 4,200 469 Climbing Boston Center
Thu 03:16:23 PM 41.6500 -72.4567 132° Southeast 91 105 4,800 397 Climbing Boston Center
Thu 03:17:17 PM 41.6356 -72.4317 128° Southeast 101 116 5,000 94 Climbing Boston Center
Thu 03:18:30 PM 41.6125 -72.4011 135° Southeast 95 109 5,000  Level Boston Center
Thu 03:19:30 PM 41.5897 -72.3733 138° Southeast 113 130 5,000  Level Boston Center
Thu 03:20:34 PM 41.5606 -72.3569 157° South 111 128 5,000 -52 Level Boston Center
Thu 03:21:25 PM 41.5356 -72.3458 162° South 108 124 4,900  Descending Boston Center
Thu 03:22:29 PM 41.5083 -72.3264 152° Southeast 105 121 5,000 259 Climbing Boston Center
Thu 03:23:21 PM 41.4853 -72.3125 156° South 99 114 5,400 478 Climbing Boston Center
Thu 03:24:22 PM 41.4603 -72.3017 162° South 97 112 5,900 283 Climbing Boston Center
Thu 03:25:28 PM 41.4269 -72.2878 163° South 107 123 6,000 32 Climbing Boston Center
Thu 03:27:27 PM 41.3667 -72.2667 165° South 110 127 6,000 -34 Level New York TRACON
Thu 03:28:27 PM 41.3333 -72.2833 201° Southwest 115 132 5,900  Descending New York TRACON
Thu 03:29:27 PM 41.3167 -72.3000 217° Southwest 109 125 6,000 50 Climbing New York TRACON
Thu 03:30:27 PM 41.2833 -72.3167 201° Southwest 108 124 6,000  Level New York TRACON
Thu 03:31:27 PM 41.2667 -72.3500 236° Southwest 114 131 6,000  Level New York TRACON
Thu 03:32:27 PM 41.2500 -72.3833 236° Southwest 110 127 6,000  Level New York TRACON
Thu 03:33:27 PM 41.2167 -72.4000 201° Southwest 109 125 6,000 -250 Level New York TRACON
Thu 03:34:27 PM 41.2000 -72.4333 236° Southwest 114 131 5,500 -550 Descending New York TRACON
Thu 03:35:27 PM 41.1667 -72.4667 217° Southwest 114 131 4,900 -550 Descending New York TRACON
Thu 03:36:27 PM 41.1500 -72.4833 217° Southwest 110 127 4,400 -474 Descending New York TRACON
Thu 03:37:21 PM 41.1333 -72.5000 217° Southwest 114 131 4,000 -600 Descending New York TRACON
Thu 03:38:27 PM 41.1000 -72.5333 217° Southwest 119 137 3,200 -650 Descending New York TRACON
Thu 03:39:21 PM 41.0833 -72.5667 236° Southwest 122 140 2,700 -550 Descending New York TRACON
Thu 03:40:27 PM 41.0500 -72.6000 217° Southwest 117 135 2,100 -286 Descending New York TRACON
Thu 03:41:27 PM 41.0333 -72.6167 217° Southwest 114 131 2,100  Level New York TRACON
Thu 03:42:27 PM 41.0000 -72.6500 217° Southwest 115 132 2,100 -50 Level New York TRACON
Thu 03:43:27 PM 40.9833 -72.6667 217° Southwest 117 135 2,000  Descending New York TRACON
Thu 03:44:27 PM 40.9500 -72.7000 217° Southwest 106 122 2,100 -50 Climbing New York TRACON
Thu 03:45:27 PM 40.9333 -72.7333 237° Southwest 110 127 1,900 -200 Descending New York TRACON

Login

Don't have an account? Register now (free) for customized features, flight alerts, and more!